Data for 10/05/2010

Time Sea-Level Adjusted Pressure Absolute Pressure Temperature Relative Humidity Dew Point   
(mb) (inHg) (mb) (inHg) (C) (F) (%) (C) (F)
00:05 1017 30.03 846 24.98 14.2 57.6 57 6 42.8
00:10 1017 30.03 846 24.98 14.2 57.6 56 5.7 42.2
00:15 1017 30.03 846 24.98 14.4 57.9 57 6.1 42.9
00:20 1017 30.03 846 24.98 14.2 57.5 57 5.9 42.6
00:25 1017 30.03 846 24.98 14.2 57.6 56 5.7 42.3
00:30 1017 30.03 846 24.98 14.5 58 55 5.7 42.3
00:35 1017 30.03 846 24.98 14.4 57.9 56 5.8 42.5
00:40 1017 30.03 846 24.98 14.4 57.9 57 6 42.9
00:45 1017 30.03 846 24.98 14.1 57.3 58 6 42.7
00:50 1017 30.03 846 24.98 14 57.2 58 6 42.9
00:55 1017 30.03 846 24.98 13.6 56.5 59 5.9 42.6
01:00 1017 30.03 846 24.98 13.6 56.4 59 5.7 42.3
01:05 1017 30.03 846 24.98 13.4 56.2 59 5.6 42.1
01:10 1017 30.03 846 24.98 13.5 56.3 57 5.2 41.3
01:15 1017 30.03 846 24.98 14.1 57.3 58 5.9 42.6
01:20 1017 30.03 846 24.98 13.7 56.7 56 5.2 41.4
01:25 1017 30.03 846 24.98 13.7 56.6 58 5.7 42.3
01:30 1017 30.03 847 25.01 13.3 56 58 5.4 41.7
01:35 1017 30.03 847 25.01 13.6 56.4 56 5 41
01:40 1017 30.03 847 25.01 13.8 56.9 58 5.7 42.3
01:45 1017 30.03 847 25.01 13.2 55.7 58 5.2 41.4
01:50 1017 30.03 847 25.01 12.9 55.1 60 5.4 41.7
01:55 1017 30.03 847 25.01 12.6 54.7 60 5.2 41.3
02:00 1018 30.06 847 25.01 12.6 54.6 60 5.1 41.3
02:05 1017 30.03 847 25.01 12.4 54.2 61 5.2 41.4
02:10 1017 30.03 847 25.01 12 53.7 64 5.4 41.7
02:15 1017 30.03 847 25.01 11.8 53.3 64 5.3 41.5
02:20 1017 30.03 847 25.01 11.8 53.3 64 5.3 41.5
02:25 1017 30.03 847 25.01 12 53.5 63 5.3 41.5
02:30 1017 30.03 847 25.01 12.1 53.8 62 5.2 41.3
02:35 1018 30.06 847 25.01 12 53.6 63 5.2 41.4
02:40 1018 30.06 847 25.01 11.8 53.2 65 5.4 41.8
02:45 1018 30.06 847 25.01 11.3 52.3 66 5.2 41.3
02:50 1018 30.06 847 25.01 11.3 52.4 66 5.2 41.4
02:55 1018 30.06 847 25.01 11.3 52.3 67 5.3 41.6
03:00 1018 30.06 847 25.01 11.4 52.6 64 5 41
03:05 1018 30.06 847 25.01 11.5 52.6 65 5.2 41.3
03:10 1018 30.06 847 25.01 11.5 52.7 64 5.1 41.2
03:15 1018 30.06 847 25.01 11.3 52.3 66 5.2 41.4
03:20 1018 30.06 847 25.01 11.2 52.2 68 5.6 42
03:25 1018 30.06 847 25.01 10.3 50.6 70 5.1 41.2
03:30 1018 30.06 847 25.01 10.4 50.8 69 5.1 41.2
03:35 1018 30.06 847 25.01 10.4 50.8 69 4.9 40.9
03:40 1018 30.06 847 25.01 10.5 50.9 68 4.8 40.6
03:45 1018 30.06 847 25.01 10.7 51.2 68 5.1 41.1
03:50 1018 30.06 847 25.01 10.8 51.5 67 5.1 41.2
03:55 1018 30.06 847 25.01 11.1 51.9 67 5.2 41.3
04:00 1018 30.06 847 25.01 10.8 51.4 68 5.2 41.3
04:05 1018 30.06 847 25.01 10.5 50.8 70 5.2 41.4
04:10 1018 30.06 847 25.01 10.1 50.2 69 4.8 40.6
04:15 1018 30.06 847 25.01 10.1 50.2 72 5.3 41.5
04:20 1018 30.06 847 25.01 9.7 49.4 72 4.8 40.7
04:25 1018 30.06 848 25.04 9.8 49.7 72 5 40.9
04:30 1018 30.06 848 25.04 9.5 49.2 73 5 41
04:35 1018 30.06 847 25.01 9.7 49.4 71 4.7 40.4
04:40 1018 30.06 848 25.04 9.9 49.9 70 4.8 40.6
04:45 1018 30.06 848 25.04 9.9 49.8 72 5.1 41.2
04:50 1018 30.06 848 25.04 10 49.9 71 5 40.9
04:55 1019 30.09 848 25.04 10 50 72 5.2 41.4
05:00 1019 30.09 848 25.04 10.2 50.3 68 4.7 40.4
05:05 1019 30.09 848 25.04 11.1 52 67 5.3 41.5
05:10 1019 30.09 848 25.04 10.7 51.2 70 5.4 41.7
05:15 1019 30.09 848 25.04 10 50.1 71 5.1 41.2
05:20 1019 30.09 848 25.04 9.8 49.6 71 4.9 40.8
05:25 1019 30.09 848 25.04 9.5 49.2 73 5 41
05:30 1019 30.09 848 25.04 9.4 48.8 75 5.1 41.2
05:35 1019 30.09 848 25.04 9 48.2 76 5 41
05:40 1019 30.09 848 25.04 8.9 48 76 5 41
05:45 1019 30.09 848 25.04 9.1 48.3 75 5 41
05:50 1019 30.09 848 25.04 9.3 48.7 75 5.1 41.2
05:55 1019 30.09 849 25.07 9.3 48.8 74 5 41
06:00 1019 30.09 849 25.07 9.7 49.4 73 5 41.1
06:05 1020 30.12 849 25.07 9.9 49.9 72 5.2 41.3
06:10 1020 30.12 849 25.07 10 50 73 5.4 41.8
06:15 1020 30.12 849 25.07 9.8 49.6 74 5.4 41.7
06:20 1020 30.12 849 25.07 9.9 49.7 74 5.4 41.7
06:25 1020 30.12 849 25.07 9.8 49.7 75 5.6 42
06:30 1020 30.12 849 25.07 9.9 49.9 74 5.5 41.9
06:35 1020 30.12 849 25.07 10.2 50.4 73 5.6 42
06:40 1020 30.12 849 25.07 10.2 50.4 74 5.8 42.5
06:45 1020 30.12 849 25.07 10.1 50.2 73 5.6 42.1
06:50 1020 30.12 849 25.07 10.7 51.3 71 5.6 42.2
06:55 1020 30.12 850 25.1 11 51.8 70 5.8 42.5
07:00 1020 30.12 850 25.1 11.1 51.9 71 6 42.8
07:05 1021 30.15 850 25.1 11 51.9 72 6.1 43
07:10 1021 30.15 850 25.1 10.9 51.6 72 6.1 43
07:15 1021 30.15 850 25.1 10.8 51.4 73 6.1 42.9
07:20 1021 30.15 850 25.1 10.7 51.2 74 6.2 43.2
07:25 1021 30.15 850 25.1 10.5 50.9 75 6.2 43.1
07:30 1021 30.15 850 25.1 10.3 50.5 76 6.3 43.4
07:35 1021 30.15 850 25.1 10.5 51 75 6.3 43.3
07:40 1021 30.15 850 25.1 10.5 50.8 78 6.9 44.3
07:45 1021 30.15 850 25.1 10.6 51 77 6.6 44
07:50 1021 30.15 851 25.13 10.3 50.6 77 6.6 43.8
07:55 1021 30.15 851 25.13 10.1 50.1 79 6.6 43.8
08:00 1022 30.18 851 25.13 10.2 50.4 78 6.5 43.7
08:05 1022 30.18 851 25.13 10.4 50.7 79 7 44.5
08:10 1022 30.18 851 25.13 10.8 51.4 77 6.8 44.3
08:15 1022 30.18 851 25.13 10.8 51.4 78 7.1 44.8
08:20 1022 30.18 851 25.13 10.6 51 77 6.7 44.1
08:25 1022 30.18 851 25.13 10.2 50.4 78 6.6 43.8
08:30 1022 30.18 851 25.13 10 50.1 79 6.6 43.9
08:35 1022 30.18 851 25.13 9.7 49.5 80 6.4 43.6
08:40 1022 30.18 851 25.13 9.8 49.6 81 6.6 43.9
08:45 1022 30.18 852 25.16 10 50 81 6.9 44.5
08:50 1023 30.21 852 25.16 10.2 50.4 80 6.9 44.4
08:55 1023 30.21 852 25.16 10.4 50.7 80 7.1 44.7
09:00 1023 30.21 852 25.16 10.7 51.2 79 7.2 45
09:05 1023 30.21 852 25.16 10.8 51.5 80 7.5 45.6
09:10 1023 30.21 852 25.16 11 51.7 80 7.7 45.9
09:15 1023 30.21 852 25.16 11.1 52 81 7.9 46.3
09:20 1023 30.21 852 25.16 11.5 52.7 80 8.2 46.8
09:25 1023 30.21 852 25.16 11.6 52.9 81 8.4 47.1
09:30 1023 30.21 852 25.16 11.6 52.9 81 8.5 47.2
09:35 1023 30.21 852 25.16 11.7 53.1 81 8.5 47.3
09:40 1023 30.21 853 25.19 11.9 53.4 80 8.5 47.3
09:45 1024 30.24 853 25.19 11.9 53.3 80 8.5 47.3
09:50 1024 30.24 853 25.19 11.8 53.2 79 8.2 46.8
09:55 1024 30.24 853 25.19 11.8 53.3 78 8 46.5
10:00 1024 30.24 853 25.19 12 53.7 76 8 46.4
10:05 1024 30.24 853 25.19 12 53.7 76 8 46.5
10:10 1024 30.24 853 25.19 12.1 53.7 75 7.9 46.2
10:15 1024 30.24 853 25.19 12 53.6 76 8 46.4
10:20 1024 30.24 853 25.19 11.8 53.3 77 8 46.5
10:25 1024 30.24 853 25.19 11.9 53.5 77 8 46.4
10:30 1024 30.24 853 25.19 12 53.6 76 8 46.3
10:35 1024 30.24 853 25.19 12.1 53.8 75 7.9 46.2
10:40 1024 30.24 854 25.22 12.2 54 74 7.8 46.1
10:45 1024 30.24 854 25.22 12.5 54.5 72 7.7 45.9
10:50 1025 30.27 854 25.22 12.5 54.5 73 7.8 46.1
10:55 1025 30.27 854 25.22 12.9 55.1 72 8 46.3
11:00 1025 30.27 854 25.22 13 55.4 70 7.7 45.8
11:05 1025 30.27 854 25.22 13.1 55.6 70 7.8 46.1
11:10 1025 30.27 854 25.22 13.3 56 70 8 46.4
11:15 1025 30.27 854 25.22 13.3 55.9 72 8.3 47
11:20 1025 30.27 854 25.22 13.2 55.7 73 8.4 47.1
11:25 1025 30.27 854 25.22 13.2 55.7 72 8.3 46.9
11:30 1025 30.27 854 25.22 13 55.5 72 8.2 46.8
11:35 1025 30.27 854 25.22 13.1 55.6 72 8.3 46.9
11:40 1025 30.27 854 25.22 13.1 55.5 75 8.8 47.9
11:45 1025 30.27 854 25.22 12.8 55.1 76 8.7 47.6
11:50 1025 30.27 854 25.22 12.8 55 78 9 48.2
11:55 1025 30.27 855 25.25 12.8 55.1 77 9 48.2
12:00 1025 30.27 855 25.25 12.9 55.1 78 9.1 48.3
12:05 1025 30.27 855 25.25 12.5 54.5 79 9.1 48.3
12:10 1026 30.3 855 25.25 12.3 54.1 80 8.9 48.1
12:15 1026 30.3 855 25.25 12.4 54.3 80 9 48.3
12:20 1026 30.3 855 25.25 12.4 54.4 79 9 48.2
12:25 1026 30.3 855 25.25 12.7 54.8 78 9 48.2
12:30 1026 30.3 855 25.25 12.7 54.9 79 9.3 48.7
12:35 1026 30.3 855 25.25 12.3 54.1 81 9.1 48.4
12:40 1026 30.3 855 25.25 12.3 54.2 79 8.8 47.9
12:45 1026 30.3 855 25.25 12.5 54.5 78 8.8 47.9
12:50 1026 30.3 855 25.25 12.9 55.1 77 8.9 48.1
12:55 1026 30.3 855 25.25 13 55.5 75 8.8 47.8
13:00 1026 30.3 855 25.25 12.9 55.3 76 8.9 47.9
13:05 1026 30.3 855 25.25 12.8 55 77 8.9 48
13:10 1026 30.3 855 25.25 12.8 55.1 76 8.7 47.7
13:15 1026 30.3 855 25.25 12.9 55.2 76 8.8 47.8
13:20 1026 30.3 855 25.25 12.8 55.1 77 8.9 48.1
13:25 1026 30.3 855 25.25 12.7 54.9 77 8.9 48
13:30 1026 30.3 855 25.25 12.6 54.7 79 9 48.3
13:35 1026 30.3 855 25.25 12.5 54.5 78 8.9 48
13:40 1026 30.3 855 25.25 12.7 54.8 77 8.8 47.8
13:45 1026 30.3 855 25.25 12.7 54.8 77 8.8 47.9
13:50 1026 30.3 855 25.25 13 55.3 76 8.8 47.8
13:55 1026 30.3 855 25.25 13.2 55.7 75 8.9 48
14:00 1026 30.3 855 25.25 13.1 55.5 76 9 48.1
14:05 1026 30.3 855 25.25 12.9 55.2 77 9 48.2
14:10 1026 30.3 856 25.28 12.9 55.3 76 8.8 47.8
14:15 1026 30.3 855 25.25 12.9 55.2 75 8.5 47.4
14:20 1026 30.3 855 25.25 12.8 55 74 8.3 46.9
14:25 1026 30.3 855 25.25 12.7 54.9 74 8.3 47
14:30 1026 30.3 855 25.25 12.7 54.8 75 8.3 46.9
14:35 1026 30.3 855 25.25 12.9 55.2 74 8.5 47.2
14:40 1026 30.3 855 25.25 13.1 55.6 74 8.6 47.6
14:45 1026 30.3 855 25.25 13.3 55.9 73 8.6 47.5
14:50 1026 30.3 856 25.28 13 55.4 75 8.6 47.5
14:55 1026 30.3 856 25.28 13 55.4 74 8.5 47.3
15:00 1026 30.3 856 25.28 13.1 55.5 73 8.4 47.2
15:05 1026 30.3 856 25.28 13.4 56.1 74 8.8 47.9
15:10 1027 30.33 856 25.28 13.2 55.8 74 8.6 47.6
15:15 1027 30.33 856 25.28 13.8 56.8 70 8.5 47.3
15:20 1027 30.33 856 25.28 13.6 56.5 72 8.7 47.7
15:25 1027 30.33 856 25.28 13.7 56.6 69 8.2 46.8
15:30 1027 30.33 856 25.28 14.2 57.5 68 8.5 47.3
15:35 1027 30.33 856 25.28 13.7 56.7 71 8.5 47.4
15:40 1027 30.33 856 25.28 13.3 56 69 7.8 46
15:45 1027 30.33 856 25.28 13.5 56.3 67 7.5 45.5
15:50 1027 30.33 856 25.28 14 57.3 66 7.8 46
15:55 1027 30.33 856 25.28 13.8 56.8 66 7.6 45.7
16:00 1027 30.33 856 25.28 13.9 57 68 8.2 46.8
16:05 1027 30.33 856 25.28 13.9 57 68 8.1 46.6
16:10 1027 30.33 856 25.28 14.1 57.4 65 7.7 45.9
16:15 1027 30.33 856 25.28 14.4 58 66 8.2 46.7
16:20 1027 30.33 856 25.28 14.4 58 67 8.4 47.2
16:25 1027 30.33 856 25.28 14 57.2 70 8.7 47.6
16:30 1027 30.33 856 25.28 13.8 56.9 70 8.5 47.4
16:35 1027 30.33 856 25.28 13.8 56.8 70 8.5 47.3
16:40 1027 30.33 856 25.28 13.9 56.9 69 8.3 47
16:45 1027 30.33 856 25.28 14.2 57.5 67 8.3 46.9
16:50 1027 30.33 856 25.28 14.7 58.4 66 8.4 47.2
16:55 1027 30.33 856 25.28 14.9 58.9 65 8.4 47.2
17:00 1027 30.33 856 25.28 14.4 57.9 66 8.2 46.7
17:05 1027 30.33 856 25.28 14.3 57.8 68 8.7 47.6
17:10 1027 30.33 856 25.28 14.4 57.8 70 9 48.2
17:15 1027 30.33 856 25.28 14.2 57.5 71 8.9 48.1
17:20 1027 30.33 856 25.28 14.1 57.3 71 8.9 48
17:25 1027 30.33 857 25.31 14.1 57.3 71 8.9 48
17:30 1027 30.33 857 25.31 14 57.2 71 8.8 47.8
17:35 1027 30.33 857 25.31 14 57.1 71 8.9 48.1
17:40 1027 30.33 857 25.31 13.7 56.6 74 9.1 48.4
17:45 1027 30.33 857 25.31 13.5 56.3 72 8.7 47.6
17:50 1028 30.36 857 25.31 13.5 56.3 67 7.7 45.8
17:55 1028 30.36 857 25.31 13.6 56.4 67 7.6 45.7
18:00 1028 30.36 857 25.31 13.6 56.5 66 7.5 45.5
18:05 1028 30.36 857 25.31 13.6 56.4 66 7.5 45.4
18:10 1028 30.36 857 25.31 13.5 56.4 66 7.4 45.2
18:15 1028 30.36 857 25.31 13.6 56.4 66 7.5 45.5
18:20 1028 30.36 857 25.31 13.5 56.2 67 7.6 45.7
18:25 1028 30.36 857 25.31 13.3 56 69 7.8 46
18:30 1028 30.36 857 25.31 13.2 55.8 68 7.5 45.6
18:35 1028 30.36 857 25.31 13.2 55.7 68 7.4 45.4
18:40 1028 30.36 857 25.31 13 55.3 70 7.6 45.7
18:45 1028 30.36 857 25.31 12.9 55.3 70 7.5 45.6
18:50 1028 30.36 857 25.31 12.8 55 71 7.6 45.8
18:55 1028 30.36 857 25.31 12.5 54.5 74 7.9 46.3
19:00 1028 30.36 857 25.31 12.4 54.3 75 8.1 46.6
19:05 1028 30.36 857 25.31 12.4 54.3 77 8.5 47.4
19:10 1028 30.36 857 25.31 12.3 54.2 77 8.5 47.2
19:15 1028 30.36 857 25.31 12.3 54.1 78 8.6 47.5
19:20 1028 30.36 857 25.31 12.3 54.1 79 8.7 47.6
19:25 1028 30.36 857 25.31 12.2 53.9 79 8.7 47.7
19:30 1028 30.36 857 25.31 12.2 54 79 8.7 47.7
19:35 1028 30.36 857 25.31 12.1 53.8 80 8.7 47.7
19:40 1028 30.36 857 25.31 12 53.6 80 8.7 47.6
19:45 1028 30.36 858 25.34 11.9 53.5 80 8.7 47.6
19:50 1028 30.36 858 25.34 11.8 53.3 81 8.6 47.6
19:55 1028 30.36 858 25.34 11.7 53.1 81 8.7 47.6
20:00 1029 30.39 858 25.34 11.7 53 81 8.6 47.5
20:05 1029 30.39 858 25.34 11.7 53.1 81 8.6 47.4
20:10 1029 30.39 858 25.34 12 53.6 81 8.9 48
20:15 1029 30.39 858 25.34 12.2 53.9 79 8.7 47.7
20:20 1029 30.39 858 25.34 12.3 54.2 78 8.7 47.6
20:25 1029 30.39 858 25.34 12.4 54.2 79 8.9 48
20:30 1029 30.39 858 25.34 12.1 53.8 79 8.6 47.6
20:35 1029 30.39 858 25.34 12.2 54 79 8.6 47.6
20:40 1029 30.39 858 25.34 12 53.6 79 8.5 47.2
20:45 1029 30.39 858 25.34 11.7 53.1 77 7.9 46.3
20:50 1029 30.39 858 25.34 11.6 52.9 77 7.7 45.8
20:55 1029 30.39 858 25.34 11.4 52.6 76 7.4 45.3
21:00 1029 30.39 858 25.34 11.3 52.3 76 7.2 45
21:05 1029 30.39 858 25.34 11.2 52.1 76 7 44.6
21:10 1029 30.39 858 25.34 11.1 52 76 7 44.6
21:15 1029 30.39 858 25.34 11 51.9 76 7.1 44.7
21:20 1029 30.39 858 25.34 10.6 51 79 7.1 44.8
21:25 1029 30.39 858 25.34 10.3 50.6 78 6.7 44.1
21:30 1029 30.39 858 25.34 10.6 51.1 78 6.9 44.4
21:35 1029 30.39 858 25.34 10.6 51.2 78 7 44.5
21:40 1029 30.39 858 25.34 10.6 51 79 7.1 44.7
21:45 1029 30.39 858 25.34 10.5 51 79 7.1 44.8
21:50 1029 30.39 858 25.34 10.5 50.9 80 7.2 44.9
21:55 1029 30.39 858 25.34 10.5 50.8 81 7.3 45.2
22:00 1029 30.39 858 25.34 10.6 51 81 7.5 45.5
22:05 1029 30.39 858 25.34 10.6 51 82 7.6 45.6
22:10 1029 30.39 858 25.34 10.5 51 82 7.6 45.7
22:15 1029 30.39 858 25.34 10.6 51 82 7.7 45.8
22:20 1029 30.39 858 25.34 10.7 51.2 81 7.6 45.6
22:25 1029 30.39 858 25.34 10.9 51.5 80 7.6 45.6
22:30 1029 30.39 858 25.34 11 51.7 80 7.6 45.7
22:35 1029 30.39 858 25.34 11 51.8 79 7.5 45.5
22:40 1029 30.39 858 25.34 11.1 52 77 7.3 45.1
22:45 1029 30.39 858 25.34 11.2 52.1 77 7.3 45.2
22:50 1029 30.39 858 25.34 11.2 52.1 77 7.3 45.2
22:55 1029 30.39 858 25.34 11.1 52 77 7.2 45
23:00 1029 30.39 858 25.34 11.1 52 77 7.2 44.9
23:05 1029 30.39 858 25.34 11.2 52.1 76 7.2 44.9
23:10 1029 30.39 858 25.34 11.1 52 76 7 44.6
23:15 1029 30.39 858 25.34 11.1 52 75 6.9 44.4
23:20 1029 30.39 858 25.34 11.1 51.9 75 6.8 44.2
23:25 1029 30.39 858 25.34 11 51.8 75 6.9 44.4
23:30 1029 30.39 858 25.34 10.6 51.1 80 7.3 45.1
23:35 1029 30.39 858 25.34 9.9 49.7 83 7.1 44.7
23:40 1029 30.39 858 25.34 9.5 49.1 83 6.8 44.3
23:45 1029 30.39 858 25.34 9.2 48.6 85 6.8 44.2
23:50 1029 30.39 858 25.34 9 48.1 87 6.9 44.3
23:55 1029 30.39 858 25.34 9.1 48.3 85 6.6 43.9
24:00 1029 30.39 858 25.34 9.1 48.4 84 6.5 43.7